Boston, United Kingdom
Current Conditions -  °F | °C
As of 10:50 AM on Sunday 23 Nov 2014 (Local Time) from EGXC Reporting Station
Light Rain Light Rain  
Wind Chill: 40°   Ceiling: 5000
Heat Index: 45°   Visibility: 6mi
Dew Point: 43°   Wind: 9mph
Humidity: 93%   Direction: 320°NW
Pressure: 30.03"   Gusts: NA
Location:  52.98°N, 0°W
Report Text: EGXC 231050Z 32008KT 9999 -RA BKN050 OVC080 07/06 Q1017 BLU NOSIG
Loading
Personal Weather Stations






























Interactive Weather Map New forecast layout! Learn more

10-Day Weather Forecast

Advertisements
Track Severe Weather on mobile